Time;durP1;ratioP1;P1;durP2;ratioP2;P2;SDS_P1;SDS_P2;PMS_P1;PMS_P2;Temp;Humidity;BMP_temperature;BMP_pressure;BME280_temperature;BME280_humidity;BME280_pressure;Samples;Min_cycle;Max_cycle;Signal;HPM_P1;HPM_P2
2023/01/27 00:09:04;;;;;;;92.40;27.50;;;;;;;3.15;100.00;100772.13;682458;1260;140297;-79
2023/01/27 00:39:33;;;;;;;78.80;24.20;;;;;;;3.16;100.00;100787.31;682728;1263;139321;-79
2023/01/27 00:54:36;;;;;;;108.50;31.40;;;;;;;3.16;100.00;100797.34;682576;1258;140367;-79
2023/01/27 01:09:39;;;;;;;113.50;33.20;;;;;;;3.14;100.00;100801.23;682339;1275;139508;-79
2023/01/27 01:24:43;;;;;;;99.00;29.80;;;;;;;3.11;100.00;100797.58;682325;1259;139596;-79
2023/01/27 01:39:48;;;;;;;86.00;26.40;;;;;;;3.12;100.00;100801.48;682662;1259;139435;-79
2023/01/27 01:54:55;;;;;;;84.20;24.80;;;;;;;3.06;100.00;100793.64;682526;1259;139392;-79
2023/01/27 02:10:00;;;;;;;98.20;25.50;;;;;;;3.15;100.00;100790.81;682425;1262;139217;-79
2023/01/27 02:25:23;;;;;;;84.10;25.50;;;;;;;3.10;100.00;100807.10;682383;1265;139432;-79
2023/01/27 02:40:27;;;;;;;86.30;26.20;;;;;;;3.02;100.00;100815.47;682535;1259;140088;-81
2023/01/27 02:55:30;;;;;;;72.80;24.70;;;;;;;2.85;99.96;100828.16;682376;1259;139698;-79
2023/01/27 03:10:34;;;;;;;81.70;26.20;;;;;;;2.87;99.79;100832.06;682494;1260;139183;-79
2023/01/27 03:25:42;;;;;;;72.10;23.10;;;;;;;2.90;99.98;100840.20;682602;1262;140586;-79
2023/01/27 03:56:08;;;;;;;72.10;22.70;;;;;;;3.04;99.77;100847.16;682509;1259;140956;-80
2023/01/27 04:26:34;;;;;;;92.10;33.20;;;;;;;2.98;99.07;100864.52;682858;1260;139220;-79
2023/01/27 04:41:37;;;;;;;98.70;36.30;;;;;;;2.98;99.06;100878.39;682332;1263;138994;-80
2023/01/27 04:56:53;;;;;;;112.40;37.30;;;;;;;2.99;99.00;100899.77;682339;1259;139537;-79
2023/01/27 05:11:57;;;;;;;82.30;28.20;;;;;;;3.00;98.76;100914.23;682244;1259;139266;-80
2023/01/27 05:27:00;;;;;;;108.10;38.30;;;;;;;2.88;98.82;100930.16;682682;1259;139663;-80
2023/01/27 05:42:03;;;;;;;112.00;43.30;;;;;;;2.85;98.86;100935.64;682623;1260;139191;-80
2023/01/27 05:57:06;;;;;;;93.40;30.20;;;;;;;2.88;98.90;100943.50;682607;1263;140122;-80
2023/01/27 06:12:10;;;;;;;130.80;51.60;;;;;;;2.84;98.68;100948.30;682230;1263;140461;-79
2023/01/27 06:27:14;;;;;;;109.90;39.00;;;;;;;2.89;98.75;100969.33;682659;1264;139389;-79
2023/01/27 06:42:17;;;;;;;83.40;32.00;;;;;;;2.94;98.78;100984.49;682344;1263;139292;-79
2023/01/27 06:57:20;;;;;;;87.30;30.30;;;;;;;3.00;98.81;100989.93;682497;1259;139976;-81
2023/01/27 07:12:23;;;;;;;100.00;31.50;;;;;;;3.07;98.82;100997.73;682599;1260;139424;-79
2023/01/27 07:27:27;;;;;;;139.80;45.70;;;;;;;3.11;98.71;101002.23;682441;1263;139160;-81
2023/01/27 07:42:30;;;;;;;124.80;43.30;;;;;;;3.21;98.63;101008.70;682259;1263;140169;-82
2023/01/27 07:57:34;;;;;;;77.50;29.60;;;;;;;3.24;98.39;101013.54;682321;1260;140164;-80
2023/01/27 08:12:37;;;;;;;81.30;39.00;;;;;;;3.34;98.11;101027.45;682323;1260;140202;-80
2023/01/27 08:27:40;;;;;;;119.60;45.70;;;;;;;3.38;97.72;101031.23;682582;1266;140847;-80
2023/01/27 08:42:44;;;;;;;99.40;37.40;;;;;;;3.55;97.60;101043.95;682400;1263;139799;-81
2023/01/27 08:57:47;;;;;;;118.00;45.30;;;;;;;3.62;97.25;101058.73;682376;1260;139341;-80
2023/01/27 09:12:50;;;;;;;65.90;25.30;;;;;;;3.80;97.20;101073.27;682207;1265;139268;-79
2023/01/27 09:27:55;;;;;;;80.50;39.20;;;;;;;3.94;97.31;101088.89;682153;1263;143160;-79
2023/01/27 09:43:49;;;;;;;160.90;69.80;;;;;;;3.77;96.38;101100.71;682450;1263;139392;-79
2023/01/27 09:59:26;;;;;;;70.90;32.00;;;;;;;3.81;96.50;101105.39;682095;1263;139383;-80
2023/01/27 10:14:46;;;;;;;89.50;35.60;;;;;;;3.89;96.48;101104.18;682366;1265;139332;-79
2023/01/27 10:30:04;;;;;;;64.40;31.40;;;;;;;3.84;96.50;101104.36;682453;1263;140492;-78
2023/01/27 10:45:10;;;;;;;;;;;;;;;3.90;97.32;101100.83;682396;1265;140334;-78
2023/01/27 11:00:24;;;;;;;93.40;40.90;;;;;;;3.99;97.37;101107.82;682390;1263;126495;-78
2023/01/27 11:15:47;;;;;;;124.90;50.40;;;;;;;3.89;97.00;101118.19;682624;1272;139224;-79
2023/01/27 11:31:12;;;;;;;184.80;71.60;;;;;;;3.79;97.04;101109.27;682416;1265;139715;-78
2023/01/27 11:46:21;;;;;;;128.30;52.30;;;;;;;3.82;97.21;101111.24;682333;1265;140650;-78
2023/01/27 12:01:38;;;;;;;130.20;52.70;;;;;;;3.72;97.00;101117.39;682106;1273;140096;-78
2023/01/27 12:16:41;;;;;;;;;;;;;;;3.82;98.00;101113.12;682287;1276;140704;-77
2023/01/27 12:31:48;;;;;;;64.60;27.00;;;;;;;4.09;97.26;101109.48;682233;1263;125763;-77
2023/01/27 12:47:01;;;;;;;76.80;27.60;;;;;;;4.08;96.37;101109.68;682391;1264;140565;-77
2023/01/27 13:02:24;;;;;;;49.80;22.00;;;;;;;3.93;95.60;101104.29;682471;1263;140709;-78
2023/01/27 13:17:40;;;;;;;53.30;24.50;;;;;;;3.79;94.73;101106.32;682332;1261;140786;-78
2023/01/27 13:32:48;;;;;;;87.20;40.70;;;;;;;3.86;95.05;101113.27;682256;1261;140592;-78
2023/01/27 13:48:03;;;;;;;41.60;18.20;;;;;;;3.92;95.01;101124.61;682186;1261;140228;-78
2023/01/27 14:03:15;;;;;;;49.60;19.80;;;;;;;3.75;94.99;101137.48;682458;1261;141263;-79
2023/01/27 14:18:36;;;;;;;64.60;30.20;;;;;;;3.74;95.45;101149.30;682251;1260;140168;-77
2023/01/27 14:34:04;;;;;;;64.80;25.60;;;;;;;3.81;96.10;101155.73;682278;1260;139337;-78
2023/01/27 14:49:14;;;;;;;59.90;24.90;;;;;;;3.68;96.04;101167.39;682252;1261;140034;-77
2023/01/27 15:04:48;;;;;;;94.70;42.20;;;;;;;3.50;95.98;101177.73;682443;1260;139421;-78
2023/01/27 15:20:00;;;;;;;70.70;29.50;;;;;;;3.33;95.92;101187.97;682319;1263;140109;-78
2023/01/27 15:35:30;;;;;;;52.70;21.60;;;;;;;3.23;95.72;101189.61;682294;1260;140460;-78
2023/01/27 15:50:39;;;;;;;206.10;72.30;;;;;;;3.07;94.97;101205.31;682149;1262;140701;-77
2023/01/27 16:05:51;;;;;;;72.30;30.80;;;;;;;2.97;94.03;101224.39;682532;1260;140249;-78
2023/01/27 16:20:58;;;;;;;143.00;51.20;;;;;;;2.85;93.30;101238.71;682485;1263;140096;-78
2023/01/27 16:36:05;;;;;;;;;;;;;;;2.61;91.14;101241.04;681995;1260;140604;-79
2023/01/27 16:51:19;;;;;;;32.60;16.90;;;;;;;2.43;89.80;101242.09;681906;1261;126309;-79
2023/01/27 17:06:25;;;;;;;23.70;13.80;;;;;;;2.37;89.45;101248.69;681966;1261;140104;-78
2023/01/27 17:21:56;;;;;;;82.80;35.40;;;;;;;2.20;85.96;101264.17;682204;1264;139722;-78
2023/01/27 17:37:32;;;;;;;75.40;32.20;;;;;;;2.47;86.77;101271.98;682323;1260;141250;-80
2023/01/27 17:52:35;;;;;;;152.90;46.20;;;;;;;2.35;85.88;101289.52;682126;1263;139306;-79
2023/01/27 18:07:41;;;;;;;107.20;40.60;;;;;;;2.22;86.09;101303.98;681671;1261;140460;-79
2023/01/27 18:22:45;;;;;;;54.20;21.30;;;;;;;2.19;85.03;101313.07;682003;1265;139590;-80
2023/01/27 18:37:53;;;;;;;147.40;42.30;;;;;;;2.12;84.92;101321.08;682008;1264;141047;-79
2023/01/27 18:52:57;;;;;;;92.70;35.50;;;;;;;2.09;84.74;101329.83;682299;1263;140299;-79
2023/01/27 19:08:01;;;;;;;61.60;26.70;;;;;;;1.89;82.92;101327.59;682051;1263;140112;-80
2023/01/27 19:23:04;;;;;;;71.30;28.60;;;;;;;2.04;83.62;101336.91;682312;1264;140894;-78
2023/01/27 19:38:11;;;;;;;75.60;31.50;;;;;;;2.00;82.23;101341.88;682445;1261;140965;-79
2023/01/27 19:54:15;;;;;;;49.70;21.20;;;;;;;2.15;82.63;101346.68;682458;1262;139091;-80
2023/01/27 20:09:47;;;;;;;46.20;18.10;;;;;;;2.19;82.79;101344.67;682488;1262;139519;-79
2023/01/27 20:24:50;;;;;;;27.50;10.40;;;;;;;2.23;83.28;101337.97;682147;1261;140184;-81
2023/01/27 20:39:55;;;;;;;72.00;26.90;;;;;;;2.23;83.29;101347.80;682690;1263;140229;-82
2023/01/27 20:54:59;;;;;;;34.50;13.70;;;;;;;2.23;83.58;101357.30;682534;1260;139042;-80
2023/01/27 21:10:04;;;;;;;51.20;18.10;;;;;;;2.25;83.35;101361.54;682545;1263;139649;-79
2023/01/27 21:25:07;;;;;;;42.10;14.30;;;;;;;2.22;83.18;101357.83;682089;1263;149708;-81
2023/01/27 21:40:14;;;;;;;28.50;12.20;;;;;;;2.20;83.50;101352.42;682081;1263;137921;-80
2023/01/27 21:55:26;;;;;;;15.60;7.40;;;;;;;2.20;83.35;101348.27;681755;1264;139385;-81
2023/01/27 22:10:29;;;;;;;25.30;9.50;;;;;;;2.17;83.39;101351.81;682218;1264;139085;-80
2023/01/27 22:25:32;;;;;;;18.20;9.10;;;;;;;2.19;82.97;101351.91;682096;1265;140658;-80
2023/01/27 22:40:36;;;;;;;29.40;11.80;;;;;;;2.17;83.03;101343.69;682255;1263;139521;-80
2023/01/27 22:55:39;;;;;;;44.20;16.30;;;;;;;2.13;82.65;101347.27;682213;1265;139918;-80
2023/01/27 23:10:42;;;;;;;51.90;16.30;;;;;;;2.04;82.65;101346.73;682312;1263;139781;-80
2023/01/27 23:25:46;;;;;;;36.50;12.00;;;;;;;1.98;82.54;101338.99;682351;1266;140084;-81
2023/01/27 23:40:53;;;;;;;23.50;9.50;;;;;;;2.04;82.80;101330.71;682146;1266;139126;-81
2023/01/27 23:55:58;;;;;;;17.20;7.60;;;;;;;1.99;82.31;101321.73;682301;1264;139081;-81
